Time;durP1;ratioP1;P1;durP2;ratioP2;P2;SDS_P1;SDS_P2;PMS_P1;PMS_P2;Temp;Humidity;BMP_temperature;BMP_pressure;BME280_temperature;BME280_humidity;BME280_pressure;Samples;Min_cycle;Max_cycle;Signal;HPM_P1;HPM_P2
2021/07/13 00:01:55;;;;;;;;;;;23.10;57.50;;;;;;500400;237;1165;-70
2021/07/13 00:03:56;;;;;;;;;;;23.20;57.30;;;;;;500436;237;952;-70
2021/07/13 00:05:57;;;;;;;;;;;23.10;57.30;;;;;;500487;237;1189;-70
2021/07/13 00:07:59;;;;;;;;;;;23.10;57.30;;;;;;500469;237;1080;-70
2021/07/13 00:10:00;;;;;;;;;;;23.10;57.30;;;;;;500381;237;1120;-70
2021/07/13 00:12:01;;;;;;;;;;;23.10;57.30;;;;;;500366;237;2170;-70
2021/07/13 00:14:03;;;;;;;;;;;23.10;57.40;;;;;;500415;237;1132;-71
2021/07/13 00:16:04;;;;;;;;;;;23.10;57.40;;;;;;500408;237;1145;-70
2021/07/13 00:18:05;;;;;;;;;;;23.10;57.40;;;;;;500489;237;1212;-70
2021/07/13 00:20:06;;;;;;;;;;;23.00;57.40;;;;;;500399;237;1042;-70
2021/07/13 00:22:08;;;;;;;;;;;23.10;57.40;;;;;;500427;237;1214;-70
2021/07/13 00:24:09;;;;;;;;;;;23.10;57.40;;;;;;500455;237;1036;-70
2021/07/13 00:26:10;;;;;;;;;;;23.10;57.30;;;;;;500406;237;1304;-70
2021/07/13 00:28:12;;;;;;;;;;;23.10;57.30;;;;;;500474;237;1070;-70
2021/07/13 00:30:13;;;;;;;;;;;23.10;57.30;;;;;;500402;237;1208;-70
2021/07/13 00:32:14;;;;;;;;;;;23.00;57.50;;;;;;500391;237;2184;-70
2021/07/13 00:34:16;;;;;;;;;;;23.10;57.40;;;;;;500480;237;1032;-70
2021/07/13 00:36:17;;;;;;;;;;;23.10;57.40;;;;;;500526;236;1242;-70
2021/07/13 00:38:18;;;;;;;;;;;23.10;57.30;;;;;;500476;237;1064;-70
2021/07/13 00:40:20;;;;;;;;;;;23.10;57.40;;;;;;500377;237;956;-70
2021/07/13 00:42:21;;;;;;;;;;;23.10;57.30;;;;;;500328;237;1109;-70
2021/07/13 00:44:23;;;;;;;;;;;23.00;57.30;;;;;;500394;237;1155;-70
2021/07/13 00:46:24;;;;;;;;;;;23.10;57.50;;;;;;500220;237;1535;-70
2021/07/13 00:48:25;;;;;;;;;;;23.10;57.40;;;;;;500432;237;1081;-70
2021/07/13 00:50:26;;;;;;;;;;;23.20;57.40;;;;;;500425;237;983;-70
2021/07/13 00:52:28;;;;;;;;;;;23.10;57.20;;;;;;500415;237;2131;-70
2021/07/13 00:54:29;;;;;;;;;;;23.10;57.40;;;;;;500445;237;1040;-70
2021/07/13 00:56:30;;;;;;;;;;;23.10;57.30;;;;;;500447;237;1038;-70
2021/07/13 00:58:32;;;;;;;;;;;23.10;57.30;;;;;;500413;237;1077;-70
2021/07/13 01:00:33;;;;;;;;;;;23.00;57.40;;;;;;500410;237;1140;-70
2021/07/13 01:02:34;;;;;;;;;;;23.10;57.50;;;;;;500539;237;1044;-70
2021/07/13 01:04:36;;;;;;;;;;;23.10;57.30;;;;;;500463;237;960;-70
2021/07/13 01:06:37;;;;;;;;;;;23.10;57.40;;;;;;500448;237;1123;-70
2021/07/13 01:08:38;;;;;;;;;;;23.10;57.40;;;;;;500511;237;942;-70
2021/07/13 01:10:40;;;;;;;;;;;23.10;57.30;;;;;;500360;237;2124;-70
2021/07/13 01:12:41;;;;;;;;;;;23.10;57.20;;;;;;500393;237;1031;-70
2021/07/13 01:14:42;;;;;;;;;;;23.10;57.30;;;;;;500428;237;1116;-71
2021/07/13 01:16:44;;;;;;;;;;;23.10;57.30;;;;;;500394;237;1156;-70
2021/07/13 01:18:45;;;;;;;;;;;23.10;57.30;;;;;;500410;237;1125;-70
2021/07/13 01:20:46;;;;;;;;;;;23.10;57.30;;;;;;500335;237;1035;-70
2021/07/13 01:22:48;;;;;;;;;;;23.10;57.30;;;;;;500438;237;1086;-70
2021/07/13 01:24:49;;;;;;;;;;;23.10;57.30;;;;;;500459;237;1031;-70
2021/07/13 01:26:50;;;;;;;;;;;23.10;57.30;;;;;;500247;237;1313;-70
2021/07/13 01:28:51;;;;;;;;;;;23.00;57.30;;;;;;500450;237;1080;-70
2021/07/13 01:30:53;;;;;;;;;;;23.00;57.40;;;;;;500401;237;2179;-70
2021/07/13 01:32:54;;;;;;;;;;;23.10;57.50;;;;;;500400;237;1206;-70
2021/07/13 01:34:56;;;;;;;;;;;23.10;57.30;;;;;;500438;237;1049;-70
2021/07/13 01:36:57;;;;;;;;;;;23.10;57.30;;;;;;500304;237;1199;-70
2021/07/13 01:38:58;;;;;;;;;;;23.10;57.30;;;;;;500495;237;1028;-70
2021/07/13 01:40:59;;;;;;;;;;;23.10;57.30;;;;;;500301;237;1232;-70
2021/07/13 01:43:01;;;;;;;;;;;23.00;57.30;;;;;;500533;237;1159;-70
2021/07/13 01:45:02;;;;;;;;;;;23.10;57.50;;;;;;500464;237;1058;-70
2021/07/13 01:47:04;;;;;;;;;;;23.00;57.40;;;;;;500401;237;1176;-71
2021/07/13 01:49:05;;;;;;;;;;;23.10;57.30;;;;;;500397;237;963;-70
2021/07/13 01:51:06;;;;;;;;;;;23.10;57.10;;;;;;500408;237;2172;-70
2021/07/13 01:53:08;;;;;;;;;;;23.10;57.10;;;;;;500462;237;965;-70
2021/07/13 01:55:09;;;;;;;;;;;23.00;57.20;;;;;;500435;237;981;-70
2021/07/13 01:57:10;;;;;;;;;;;23.00;57.30;;;;;;500354;237;1188;-70
2021/07/13 01:59:12;;;;;;;;;;;23.00;57.40;;;;;;500433;237;979;-70
2021/07/13 02:01:13;;;;;;;;;;;23.00;57.40;;;;;;500319;237;1192;-70
2021/07/13 02:03:14;;;;;;;;;;;23.00;57.40;;;;;;500447;237;1215;-70
2021/07/13 02:05:16;;;;;;;;;;;23.00;57.40;;;;;;500427;237;960;-70
2021/07/13 02:07:17;;;;;;;;;;;23.00;57.40;;;;;;500371;237;1161;-70
2021/07/13 02:09:18;;;;;;;;;;;23.00;57.30;;;;;;500452;237;1227;-70
2021/07/13 02:11:20;;;;;;;;;;;23.00;57.30;;;;;;500358;237;2137;-70
2021/07/13 02:13:21;;;;;;;;;;;23.00;57.40;;;;;;500550;237;1198;-70
2021/07/13 02:15:22;;;;;;;;;;;23.00;57.40;;;;;;500423;237;1030;-71
2021/07/13 02:17:24;;;;;;;;;;;23.00;57.40;;;;;;500315;237;1212;-70
2021/07/13 02:19:26;;;;;;;;;;;23.00;57.40;;;;;;500441;237;928;-70
2021/07/13 02:21:27;;;;;;;;;;;23.10;57.40;;;;;;500331;237;1217;-70
2021/07/13 02:23:28;;;;;;;;;;;23.00;57.40;;;;;;500402;237;1188;-70
2021/07/13 02:25:29;;;;;;;;;;;23.10;57.20;;;;;;500360;237;996;-70
2021/07/13 02:27:31;;;;;;;;;;;23.00;57.40;;;;;;500403;237;1071;-70
2021/07/13 02:29:32;;;;;;;;;;;23.00;57.50;;;;;;500490;237;1133;-70
2021/07/13 02:31:34;;;;;;;;;;;23.00;57.50;;;;;;500269;234;2188;-70
2021/07/13 02:33:35;;;;;;;;;;;23.00;57.50;;;;;;500420;237;978;-70
2021/07/13 02:35:36;;;;;;;;;;;23.00;57.40;;;;;;500370;237;1070;-70
2021/07/13 02:37:38;;;;;;;;;;;23.10;57.30;;;;;;500381;237;1084;-70
2021/07/13 02:39:39;;;;;;;;;;;23.00;57.30;;;;;;500436;237;996;-71
2021/07/13 02:41:40;;;;;;;;;;;23.00;57.40;;;;;;500355;237;1151;-70
2021/07/13 02:43:42;;;;;;;;;;;23.00;57.30;;;;;;500475;237;1087;-70
2021/07/13 02:45:43;;;;;;;;;;;23.00;57.40;;;;;;500429;237;960;-70
2021/07/13 02:47:44;;;;;;;;;;;22.90;57.50;;;;;;500444;237;1155;-70
2021/07/13 02:49:47;;;;;;;;;;;23.00;57.50;;;;;;500429;237;1017;-70
2021/07/13 02:51:47;;;;;;;;;;;23.00;57.50;;;;;;500197;238;2139;-70
2021/07/13 02:53:48;;;;;;;;;;;23.00;57.50;;;;;;500429;237;1047;-70
2021/07/13 02:55:50;;;;;;;;;;;23.00;57.60;;;;;;500362;237;1200;-70
2021/07/13 02:57:51;;;;;;;;;;;23.00;57.50;;;;;;500357;237;1144;-70
2021/07/13 02:59:52;;;;;;;;;;;23.00;57.60;;;;;;500447;237;1126;-70
2021/07/13 03:01:54;;;;;;;;;;;22.90;57.60;;;;;;500269;234;1287;-70
2021/07/13 03:03:55;;;;;;;;;;;23.00;57.60;;;;;;500340;237;1047;-70
2021/07/13 03:05:56;;;;;;;;;;;23.00;57.70;;;;;;500387;237;1061;-70
2021/07/13 03:07:58;;;;;;;;;;;23.00;57.60;;;;;;500332;237;1096;-70
2021/07/13 03:09:59;;;;;;;;;;;23.00;57.60;;;;;;500434;237;1050;-70
2021/07/13 03:12:00;;;;;;;;;;;23.10;57.40;;;;;;500287;237;2168;-70
2021/07/13 03:14:02;;;;;;;;;;;23.10;57.40;;;;;;500399;237;1080;-70
2021/07/13 03:16:03;;;;;;;;;;;23.10;57.40;;;;;;500360;237;1052;-70
2021/07/13 03:18:04;;;;;;;;;;;23.00;57.60;;;;;;500334;237;1193;-70
2021/07/13 03:20:05;;;;;;;;;;;23.10;57.60;;;;;;500475;237;1248;-70
2021/07/13 03:22:07;;;;;;;;;;;23.00;57.50;;;;;;500326;237;1418;-70
2021/07/13 03:24:08;;;;;;;;;;;23.10;57.50;;;;;;500451;237;941;-70
2021/07/13 03:26:09;;;;;;;;;;;23.10;57.50;;;;;;500401;237;1054;-70
2021/07/13 03:28:11;;;;;;;;;;;23.10;57.50;;;;;;500412;237;1177;-70
2021/07/13 03:30:12;;;;;;;;;;;23.10;57.40;;;;;;500452;237;1204;-70
2021/07/13 03:32:13;;;;;;;;;;;23.10;57.50;;;;;;500328;237;2176;-70
2021/07/13 03:34:15;;;;;;;;;;;23.10;57.50;;;;;;500437;237;979;-70
2021/07/13 03:36:16;;;;;;;;;;;23.10;57.50;;;;;;500327;237;1034;-70
2021/07/13 03:38:17;;;;;;;;;;;23.10;57.40;;;;;;500336;237;1130;-70
2021/07/13 03:40:19;;;;;;;;;;;23.00;57.50;;;;;;500413;237;1145;-70
2021/07/13 03:42:20;;;;;;;;;;;23.10;57.30;;;;;;500284;237;1088;-70
2021/07/13 03:44:22;;;;;;;;;;;23.00;57.40;;;;;;500437;237;957;-70
2021/07/13 03:46:24;;;;;;;;;;;23.00;57.50;;;;;;500400;237;1208;-70
2021/07/13 03:48:24;;;;;;;;;;;23.10;57.40;;;;;;500382;237;1485;-70
2021/07/13 03:50:25;;;;;;;;;;;23.00;57.50;;;;;;500554;237;954;-70
2021/07/13 03:52:27;;;;;;;;;;;23.10;57.50;;;;;;500329;237;2183;-71
2021/07/13 03:54:28;;;;;;;;;;;23.10;57.40;;;;;;500493;237;1007;-70
2021/07/13 03:56:29;;;;;;;;;;;23.10;57.50;;;;;;500363;237;1101;-70
2021/07/13 03:58:31;;;;;;;;;;;23.00;57.50;;;;;;500468;237;980;-70
2021/07/13 04:00:32;;;;;;;;;;;23.00;57.40;;;;;;500452;237;1062;-70
2021/07/13 04:02:33;;;;;;;;;;;23.00;57.50;;;;;;500407;237;1197;-70
2021/07/13 04:04:35;;;;;;;;;;;23.00;57.50;;;;;;500467;237;1037;-70
2021/07/13 04:06:36;;;;;;;;;;;23.10;57.50;;;;;;500290;236;1323;-70
2021/07/13 04:08:37;;;;;;;;;;;23.00;57.40;;;;;;500336;237;1102;-70
2021/07/13 04:10:39;;;;;;;;;;;23.00;57.40;;;;;;500347;237;1018;-69
2021/07/13 04:12:40;;;;;;;;;;;23.00;57.50;;;;;;500346;237;2174;-70
2021/07/13 04:14:41;;;;;;;;;;;23.00;57.40;;;;;;500469;237;1032;-70
2021/07/13 04:16:43;;;;;;;;;;;23.00;57.40;;;;;;500416;237;1051;-70
2021/07/13 04:18:44;;;;;;;;;;;23.00;57.40;;;;;;500445;237;1179;-70
2021/07/13 04:20:45;;;;;;;;;;;23.00;57.40;;;;;;500376;237;965;-69
2021/07/13 04:22:47;;;;;;;;;;;23.00;57.60;;;;;;500314;237;1075;-69
2021/07/13 04:24:48;;;;;;;;;;;23.00;57.50;;;;;;500422;237;1092;-70
2021/07/13 04:26:49;;;;;;;;;;;23.00;57.60;;;;;;500383;237;1011;-70
2021/07/13 04:28:51;;;;;;;;;;;23.00;57.50;;;;;;500393;237;1592;-70
2021/07/13 04:30:52;;;;;;;;;;;23.00;57.50;;;;;;500470;237;1068;-70
2021/07/13 04:32:53;;;;;;;;;;;23.00;57.60;;;;;;500340;237;2140;-70
2021/07/13 04:34:55;;;;;;;;;;;23.00;57.50;;;;;;500384;237;953;-70
2021/07/13 04:36:56;;;;;;;;;;;23.00;57.50;;;;;;500181;237;1243;-70
2021/07/13 04:38:57;;;;;;;;;;;23.00;57.60;;;;;;500204;237;1228;-70
2021/07/13 04:40:58;;;;;;;;;;;23.00;57.50;;;;;;500295;237;1287;-70
2021/07/13 04:43:00;;;;;;;;;;;23.10;57.50;;;;;;500238;237;1279;-70
2021/07/13 04:45:01;;;;;;;;;;;23.00;57.60;;;;;;500203;237;1287;-70
2021/07/13 04:47:02;;;;;;;;;;;23.00;57.50;;;;;;500108;237;1065;-70
2021/07/13 04:49:04;;;;;;;;;;;23.00;57.60;;;;;;500178;237;1177;-70
2021/07/13 04:51:05;;;;;;;;;;;23.00;57.60;;;;;;500105;237;1187;-70
2021/07/13 04:53:06;;;;;;;;;;;23.00;57.60;;;;;;500160;237;2180;-70
2021/07/13 04:55:08;;;;;;;;;;;23.00;57.70;;;;;;500325;237;1034;-70
2021/07/13 04:57:09;;;;;;;;;;;23.00;57.70;;;;;;500193;237;1077;-70
2021/07/13 04:59:10;;;;;;;;;;;22.90;57.80;;;;;;500244;237;1025;-69
2021/07/13 05:01:12;;;;;;;;;;;23.00;57.60;;;;;;500154;237;1208;-69
2021/07/13 05:03:13;;;;;;;;;;;23.00;57.60;;;;;;500168;237;1184;-70
2021/07/13 05:05:15;;;;;;;;;;;23.00;57.60;;;;;;500159;237;1066;-69
2021/07/13 05:07:16;;;;;;;;;;;22.90;57.70;;;;;;500221;237;1148;-70
2021/07/13 05:09:17;;;;;;;;;;;23.00;57.80;;;;;;500245;237;1043;-70
2021/07/13 05:11:19;;;;;;;;;;;23.00;57.70;;;;;;500164;237;1328;-70
2021/07/13 05:13:20;;;;;;;;;;;23.00;57.60;;;;;;500175;237;2120;-70
2021/07/13 05:15:21;;;;;;;;;;;23.00;57.60;;;;;;500176;237;1052;-70
2021/07/13 05:17:22;;;;;;;;;;;23.00;57.70;;;;;;500039;237;1219;-70
2021/07/13 05:19:24;;;;;;;;;;;23.00;57.80;;;;;;500237;237;1242;-70
2021/07/13 05:21:25;;;;;;;;;;;23.00;57.80;;;;;;500086;237;1302;-70
2021/07/13 05:23:26;;;;;;;;;;;23.00;57.70;;;;;;499932;237;1059;-70
2021/07/13 05:25:28;;;;;;;;;;;23.00;57.80;;;;;;500132;237;1054;-70
2021/07/13 05:27:29;;;;;;;;;;;23.00;57.70;;;;;;500006;237;1212;-70
2021/07/13 05:29:32;;;;;;;;;;;23.00;57.90;;;;;;500100;237;1082;-70
2021/07/13 05:31:32;;;;;;;;;;;23.00;57.90;;;;;;499981;238;1325;-70
2021/07/13 05:33:33;;;;;;;;;;;22.90;57.90;;;;;;500069;237;2140;-70
2021/07/13 05:35:35;;;;;;;;;;;23.00;57.80;;;;;;500027;237;1028;-70
2021/07/13 05:37:36;;;;;;;;;;;23.00;57.80;;;;;;499930;237;1087;-70
2021/07/13 05:39:37;;;;;;;;;;;23.00;57.80;;;;;;500063;237;1017;-70
2021/07/13 05:41:39;;;;;;;;;;;23.00;57.80;;;;;;500019;237;1211;-70
2021/07/13 05:43:40;;;;;;;;;;;23.00;57.80;;;;;;500000;237;1178;-70
2021/07/13 05:45:41;;;;;;;;;;;23.00;57.80;;;;;;499779;237;1276;-70
2021/07/13 05:47:42;;;;;;;;;;;23.00;57.80;;;;;;499863;237;1082;-70
2021/07/13 05:49:45;;;;;;;;;;;23.00;57.80;;;;;;500037;237;1294;-70
2021/07/13 05:51:45;;;;;;;;;;;23.00;58.00;;;;;;499712;237;1446;-70
2021/07/13 05:53:46;;;;;;;;;;;23.00;58.00;;;;;;499807;237;2187;-70
2021/07/13 05:55:48;;;;;;;;;;;23.00;57.90;;;;;;500122;237;1042;-70
2021/07/13 05:57:49;;;;;;;;;;;23.10;57.90;;;;;;499981;237;1059;-70
2021/07/13 05:59:50;;;;;;;;;;;23.00;57.90;;;;;;499917;237;1026;-70
2021/07/13 06:01:52;;;;;;;;;;;23.10;57.90;;;;;;499794;237;1117;-70
2021/07/13 06:03:53;;;;;;;;;;;23.00;57.90;;;;;;499767;237;1154;-70
2021/07/13 06:05:54;;;;;;;;;;;23.00;58.00;;;;;;499683;237;1203;-70
2021/07/13 06:07:56;;;;;;;;;;;23.10;57.90;;;;;;499791;237;1026;-70
2021/07/13 06:09:57;;;;;;;;;;;23.00;57.90;;;;;;499927;237;1016;-70
2021/07/13 06:11:58;;;;;;;;;;;23.10;57.90;;;;;;499750;237;1062;-70
2021/07/13 06:14:00;;;;;;;;;;;23.10;57.90;;;;;;499881;237;2125;-70
2021/07/13 06:16:01;;;;;;;;;;;23.10;57.80;;;;;;499766;237;1080;-70
2021/07/13 06:18:03;;;;;;;;;;;23.10;58.00;;;;;;499835;237;1059;-70
2021/07/13 06:20:05;;;;;;;;;;;23.10;57.80;;;;;;499798;237;1198;-70
2021/07/13 06:22:06;;;;;;;;;;;23.10;57.90;;;;;;499665;237;1180;-70
2021/07/13 06:24:08;;;;;;;;;;;23.10;57.90;;;;;;499632;237;1073;-70
2021/07/13 06:26:09;;;;;;;;;;;23.10;58.00;;;;;;499674;237;1192;-70
2021/07/13 06:28:10;;;;;;;;;;;23.10;57.90;;;;;;499657;237;1132;-70
2021/07/13 06:30:13;;;;;;;;;;;23.10;58.00;;;;;;499756;237;1062;-70
2021/07/13 06:32:13;;;;;;;;;;;23.10;58.00;;;;;;499759;237;1189;-70
2021/07/13 06:34:14;;;;;;;;;;;23.10;57.80;;;;;;499819;237;2132;-70
2021/07/13 06:36:16;;;;;;;;;;;23.10;57.90;;;;;;499819;237;1329;-70
2021/07/13 06:38:17;;;;;;;;;;;23.00;58.00;;;;;;499701;237;1158;-70
2021/07/13 06:40:18;;;;;;;;;;;23.00;58.00;;;;;;499476;237;1042;-70
2021/07/13 06:42:20;;;;;;;;;;;23.10;58.00;;;;;;499549;237;1206;-70
2021/07/13 06:44:21;;;;;;;;;;;23.10;58.00;;;;;;499404;237;1057;-70
2021/07/13 06:46:22;;;;;;;;;;;23.10;58.10;;;;;;499565;237;1175;-70
2021/07/13 06:48:24;;;;;;;;;;;23.10;58.00;;;;;;499615;237;1051;-70
2021/07/13 06:50:25;;;;;;;;;;;23.10;57.90;;;;;;499488;237;1131;-70
2021/07/13 06:52:27;;;;;;;;;;;23.10;58.00;;;;;;499538;237;1085;-70
2021/07/13 06:54:28;;;;;;;;;;;23.10;58.10;;;;;;499505;237;2183;-69
2021/07/13 06:56:29;;;;;;;;;;;23.10;58.10;;;;;;499567;237;1405;-70
2021/07/13 06:58:30;;;;;;;;;;;23.10;58.10;;;;;;499425;237;1078;-70
2021/07/13 07:00:32;;;;;;;;;;;23.10;58.10;;;;;;499374;237;1085;-70
2021/07/13 07:02:33;;;;;;;;;;;23.10;58.10;;;;;;499515;237;1146;-70
2021/07/13 07:04:34;;;;;;;;;;;23.00;58.10;;;;;;499544;237;1165;-70
2021/07/13 07:06:36;;;;;;;;;;;23.10;58.10;;;;;;499674;237;1287;-70
2021/07/13 07:08:37;;;;;;;;;;;23.10;58.00;;;;;;499708;237;1381;-70
2021/07/13 07:10:38;;;;;;;;;;;23.10;58.00;;;;;;499554;237;1145;-70
2021/07/13 07:12:40;;;;;;;;;;;23.20;57.80;;;;;;499574;237;1075;-70
2021/07/13 07:14:41;;;;;;;;;;;23.20;57.80;;;;;;499486;237;2184;-71
2021/07/13 07:16:42;;;;;;;;;;;23.20;57.80;;;;;;499411;237;1342;-71
2021/07/13 07:18:44;;;;;;;;;;;23.20;57.80;;;;;;499509;237;1057;-70
2021/07/13 07:20:45;;;;;;;;;;;23.20;57.80;;;;;;499546;237;1198;-70
2021/07/13 07:22:46;;;;;;;;;;;23.10;57.90;;;;;;499627;237;1090;-70
2021/07/13 07:24:48;;;;;;;;;;;23.20;58.00;;;;;;499543;237;1027;-70
2021/07/13 07:26:49;;;;;;;;;;;23.20;58.00;;;;;;499638;237;1151;-70
2021/07/13 07:28:50;;;;;;;;;;;23.20;58.00;;;;;;499778;237;1110;-71
2021/07/13 07:30:52;;;;;;;;;;;23.20;57.90;;;;;;499637;237;1103;-70
2021/07/13 07:32:53;;;;;;;;;;;23.20;57.80;;;;;;499598;237;2172;-70
2021/07/13 07:34:54;;;;;;;;;;;23.30;57.80;;;;;;499490;237;1165;-70
2021/07/13 07:36:56;;;;;;;;;;;23.30;57.80;;;;;;499750;237;1131;-71
2021/07/13 07:38:57;;;;;;;;;;;23.30;57.80;;;;;;499623;237;1080;-70
2021/07/13 07:40:58;;;;;;;;;;;23.20;57.80;;;;;;499571;237;1106;-71
2021/07/13 07:43:00;;;;;;;;;;;23.20;58.00;;;;;;499936;237;1228;-70
2021/07/13 07:45:01;;;;;;;;;;;23.20;57.90;;;;;;499539;237;1101;-70
2021/07/13 07:47:02;;;;;;;;;;;23.20;58.10;;;;;;499105;237;1250;-70
2021/07/13 07:49:03;;;;;;;;;;;23.10;58.10;;;;;;499369;237;1075;-71
2021/07/13 07:51:05;;;;;;;;;;;23.20;58.20;;;;;;499498;237;1208;-70
2021/07/13 07:53:06;;;;;;;;;;;23.10;58.10;;;;;;499583;237;2136;-71
2021/07/13 07:55:07;;;;;;;;;;;23.20;58.10;;;;;;499478;237;1142;-70
2021/07/13 07:57:09;;;;;;;;;;;23.20;58.00;;;;;;499547;237;1178;-70
2021/07/13 07:59:10;;;;;;;;;;;23.30;58.00;;;;;;499549;237;1087;-70
2021/07/13 08:01:12;;;;;;;;;;;23.30;57.90;;;;;;499387;237;1161;-70
2021/07/13 08:03:13;;;;;;;;;;;23.20;58.00;;;;;;499513;237;1244;-71
2021/07/13 08:05:15;;;;;;;;;;;23.20;58.10;;;;;;499578;237;1078;-70
2021/07/13 08:07:18;;;;;;;;;;;23.30;57.90;;;;;;499641;237;1121;-70
2021/07/13 08:09:17;;;;;;;;;;;23.20;57.90;;;;;;499543;238;1330;-70
2021/07/13 08:11:19;;;;;;;;;;;23.20;57.90;;;;;;499741;237;1453;-70
2021/07/13 08:13:20;;;;;;;;;;;23.20;58.00;;;;;;499399;237;2140;-70
2021/07/13 08:15:22;;;;;;;;;;;23.30;57.90;;;;;;499502;237;1119;-71
2021/07/13 08:17:23;;;;;;;;;;;23.20;58.00;;;;;;499505;237;1130;-70
2021/07/13 08:19:24;;;;;;;;;;;23.20;57.90;;;;;;499591;237;1056;-70
2021/07/13 08:21:26;;;;;;;;;;;23.20;57.90;;;;;;499662;237;1484;-71
2021/07/13 08:23:27;;;;;;;;;;;23.20;58.00;;;;;;499659;237;1054;-70
2021/07/13 08:25:28;;;;;;;;;;;23.20;58.00;;;;;;499525;237;1053;-70
2021/07/13 08:27:30;;;;;;;;;;;23.20;58.00;;;;;;499402;237;1298;-70
2021/07/13 08:29:31;;;;;;;;;;;23.20;57.90;;;;;;499380;237;1058;-70
2021/07/13 08:31:32;;;;;;;;;;;23.20;58.00;;;;;;499500;237;1191;-70
2021/07/13 08:33:34;;;;;;;;;;;23.20;58.00;;;;;;499465;237;2132;-70
2021/07/13 08:35:35;;;;;;;;;;;23.20;58.10;;;;;;499564;238;1132;-70
2021/07/13 08:37:36;;;;;;;;;;;23.20;58.20;;;;;;499524;237;1085;-70
2021/07/13 08:39:37;;;;;;;;;;;23.20;58.10;;;;;;499583;237;1242;-70
2021/07/13 08:41:39;;;;;;;;;;;23.30;58.10;;;;;;499490;237;1084;-70
2021/07/13 08:43:40;;;;;;;;;;;23.30;58.00;;;;;;499559;237;1086;-70
2021/07/13 08:45:41;;;;;;;;;;;23.20;58.00;;;;;;499499;237;1194;-70
2021/07/13 08:47:43;;;;;;;;;;;23.20;58.10;;;;;;499445;237;1087;-70
2021/07/13 08:49:44;;;;;;;;;;;23.20;58.00;;;;;;499262;237;1084;-71
2021/07/13 08:51:47;;;;;;;;;;;23.20;58.10;;;;;;499340;237;1089;-70
2021/07/13 08:53:47;;;;;;;;;;;23.20;58.10;;;;;;499197;238;2125;-70
2021/07/13 08:55:48;;;;;;;;;;;23.30;58.10;;;;;;499410;237;1011;-70
2021/07/13 08:57:50;;;;;;;;;;;23.30;58.10;;;;;;499323;237;1150;-70
2021/07/13 08:59:51;;;;;;;;;;;23.30;58.10;;;;;;499335;237;1105;-70
2021/07/13 09:01:52;;;;;;;;;;;23.30;58.00;;;;;;499294;237;1095;-70
2021/07/13 09:03:54;;;;;;;;;;;23.40;58.00;;;;;;499306;237;1137;-70
2021/07/13 09:05:56;;;;;;;;;;;23.30;58.10;;;;;;499906;237;1298;-70
2021/07/13 09:07:58;;;;;;;;;;;23.30;58.20;;;;;;499387;237;1055;-70
2021/07/13 09:09:59;;;;;;;;;;;23.20;58.20;;;;;;499250;237;1045;-70
2021/07/13 09:12:00;;;;;;;;;;;23.30;58.10;;;;;;499234;237;1082;-70
2021/07/13 09:14:02;;;;;;;;;;;23.30;58.00;;;;;;499206;237;2176;-70
2021/07/13 09:16:03;;;;;;;;;;;23.30;58.10;;;;;;499505;237;1053;-70
2021/07/13 09:18:04;;;;;;;;;;;23.30;58.20;;;;;;499536;237;1060;-70
2021/07/13 09:20:06;;;;;;;;;;;23.30;58.20;;;;;;499536;237;1067;-70
2021/07/13 09:22:07;;;;;;;;;;;23.30;58.20;;;;;;499521;237;1137;-70
2021/07/13 09:24:08;;;;;;;;;;;23.40;58.20;;;;;;499444;237;1055;-70
2021/07/13 09:26:10;;;;;;;;;;;23.30;58.10;;;;;;499451;237;1085;-70
2021/07/13 09:28:11;;;;;;;;;;;23.30;58.10;;;;;;499405;237;1092;-70
2021/07/13 09:30:12;;;;;;;;;;;23.30;58.10;;;;;;499367;237;1334;-70
2021/07/13 09:32:14;;;;;;;;;;;23.30;58.10;;;;;;499457;237;1058;-70
2021/07/13 09:34:15;;;;;;;;;;;23.30;58.10;;;;;;499508;237;2196;-70
2021/07/13 09:36:16;;;;;;;;;;;23.30;58.20;;;;;;499152;237;1145;-70
2021/07/13 09:38:18;;;;;;;;;;;23.30;58.10;;;;;;499116;237;1065;-70
2021/07/13 09:40:19;;;;;;;;;;;23.30;58.10;;;;;;499327;237;1052;-70
2021/07/13 09:42:20;;;;;;;;;;;23.40;58.00;;;;;;499596;237;1096;-70
2021/07/13 09:44:22;;;;;;;;;;;23.30;58.10;;;;;;499498;237;1081;-70
2021/07/13 09:46:23;;;;;;;;;;;23.30;58.10;;;;;;499476;237;1378;-70
2021/07/13 09:48:24;;;;;;;;;;;23.30;58.10;;;;;;499580;237;1045;-70
2021/07/13 09:50:26;;;;;;;;;;;23.30;58.20;;;;;;499443;237;1045;-70
2021/07/13 09:52:27;;;;;;;;;;;23.30;58.20;;;;;;499057;237;1260;-70
2021/07/13 09:54:28;;;;;;;;;;;23.30;58.20;;;;;;499104;237;2176;-70
2021/07/13 09:56:30;;;;;;;;;;;23.40;58.10;;;;;;499295;237;1228;-70
2021/07/13 09:58:31;;;;;;;;;;;23.50;58.10;;;;;;499312;237;1036;-70
2021/07/13 10:00:33;;;;;;;;;;;23.40;58.00;;;;;;499142;237;1129;-70
2021/07/13 10:02:34;;;;;;;;;;;23.40;58.10;;;;;;499589;237;1087;-70
2021/07/13 10:04:35;;;;;;;;;;;23.40;58.00;;;;;;499269;237;1028;-70
2021/07/13 10:06:37;;;;;;;;;;;23.40;58.10;;;;;;499330;237;1228;-70
2021/07/13 10:08:39;;;;;;;;;;;23.40;58.00;;;;;;499431;237;1046;-70
2021/07/13 10:10:39;;;;;;;;;;;23.40;57.90;;;;;;499173;237;1331;-70
2021/07/13 10:12:40;;;;;;;;;;;23.50;57.80;;;;;;499929;237;1209;-70
2021/07/13 10:14:42;;;;;;;;;;;23.50;57.80;;;;;;499490;237;2176;-70
2021/07/13 10:16:43;;;;;;;;;;;23.50;57.80;;;;;;499353;237;1193;-70
2021/07/13 10:18:45;;;;;;;;;;;23.60;57.70;;;;;;499538;237;1033;-70
2021/07/13 10:20:46;;;;;;;;;;;23.60;57.60;;;;;;499432;237;1050;-70
2021/07/13 10:22:48;;;;;;;;;;;23.60;57.50;;;;;;499483;237;1169;-70
2021/07/13 10:24:49;;;;;;;;;;;23.60;57.40;;;;;;499523;237;1058;-70
2021/07/13 10:26:50;;;;;;;;;;;23.60;57.50;;;;;;499400;237;1172;-70
2021/07/13 10:28:51;;;;;;;;;;;23.50;57.60;;;;;;499551;237;1057;-70
2021/07/13 10:30:56;;;;;;;;;;;23.60;57.50;;;;;;499276;237;1255;-70
2021/07/13 10:32:55;;;;;;;;;;;23.60;57.40;;;;;;500123;238;1338;-71
2021/07/13 10:34:57;;;;;;;;;;;23.60;57.50;;;;;;500018;237;2188;-70
2021/07/13 10:36:58;;;;;;;;;;;23.60;57.50;;;;;;500225;237;1254;-70
2021/07/13 10:38:59;;;;;;;;;;;23.50;57.40;;;;;;499602;237;1297;-70
2021/07/13 10:41:01;;;;;;;;;;;23.60;57.30;;;;;;499254;237;1078;-70
2021/07/13 10:43:02;;;;;;;;;;;23.60;57.30;;;;;;499381;237;1139;-70
2021/07/13 10:45:04;;;;;;;;;;;23.60;57.30;;;;;;499222;237;1234;-70
2021/07/13 10:47:05;;;;;;;;;;;23.60;57.10;;;;;;499208;237;1287;-70
2021/07/13 10:49:07;;;;;;;;;;;23.60;57.10;;;;;;499382;237;1035;-70
2021/07/13 10:51:08;;;;;;;;;;;23.60;57.00;;;;;;499354;237;1213;-70
2021/07/13 10:53:09;;;;;;;;;;;23.60;57.10;;;;;;499502;237;1196;-70
2021/07/13 10:55:11;;;;;;;;;;;23.60;57.00;;;;;;499484;237;2140;-70
2021/07/13 10:57:12;;;;;;;;;;;23.60;57.10;;;;;;499332;237;1105;-70
2021/07/13 10:59:13;;;;;;;;;;;23.60;57.00;;;;;;499384;237;1065;-71
2021/07/13 11:01:15;;;;;;;;;;;23.60;57.10;;;;;;499483;237;1087;-70
2021/07/13 11:03:16;;;;;;;;;;;23.70;57.00;;;;;;499490;237;1168;-70
2021/07/13 11:05:17;;;;;;;;;;;23.70;57.00;;;;;;499493;237;1122;-70
2021/07/13 11:07:19;;;;;;;;;;;23.70;56.80;;;;;;499449;237;1329;-70
2021/07/13 11:09:20;;;;;;;;;;;23.70;56.70;;;;;;499606;237;1068;-70
2021/07/13 11:11:21;;;;;;;;;;;23.70;56.80;;;;;;499404;237;1240;-70
2021/07/13 11:13:22;;;;;;;;;;;23.60;56.70;;;;;;499336;237;1125;-70
2021/07/13 11:15:24;;;;;;;;;;;23.60;56.80;;;;;;499408;237;2199;-70
2021/07/13 11:17:25;;;;;;;;;;;23.60;56.80;;;;;;499656;237;1104;-70
2021/07/13 11:19:26;;;;;;;;;;;23.60;56.80;;;;;;499616;237;1222;-70
2021/07/13 11:21:28;;;;;;;;;;;23.70;56.60;;;;;;499675;237;1199;-70
2021/07/13 11:23:29;;;;;;;;;;;23.70;56.60;;;;;;499578;237;1178;-70
2021/07/13 11:25:33;;;;;;;;;;;23.60;56.60;;;;;;499621;237;1076;-70
2021/07/13 11:27:35;;;;;;;;;;;23.70;56.60;;;;;;499225;238;1496;-70
2021/07/13 11:29:34;;;;;;;;;;;23.60;56.50;;;;;;499470;238;1238;-70
2021/07/13 11:31:35;;;;;;;;;;;23.60;56.50;;;;;;499449;237;1339;-70
2021/07/13 11:33:37;;;;;;;;;;;23.60;56.50;;;;;;499567;237;1104;-70
2021/07/13 11:35:40;;;;;;;;;;;23.60;56.40;;;;;;499474;237;2188;-70
2021/07/13 11:37:40;;;;;;;;;;;23.50;56.40;;;;;;499585;237;1392;-70
2021/07/13 11:39:41;;;;;;;;;;;23.70;56.30;;;;;;499458;237;1129;-70
2021/07/13 11:41:43;;;;;;;;;;;23.60;56.20;;;;;;499274;237;1287;-70
2021/07/13 11:43:44;;;;;;;;;;;23.60;56.20;;;;;;499376;237;1057;-70
2021/07/13 11:45:45;;;;;;;;;;;23.60;56.10;;;;;;499397;237;1112;-70
2021/07/13 11:47:47;;;;;;;;;;;23.30;56.90;;;;;;499455;237;1217;-70
2021/07/13 11:49:48;;;;;;;;;;;23.00;57.60;;;;;;499434;237;1092;-70
2021/07/13 11:51:50;;;;;;;;;;;22.80;58.10;;;;;;499439;237;1090;-70
2021/07/13 11:53:51;;;;;;;;;;;22.70;58.60;;;;;;499480;237;1097;-70
2021/07/13 11:55:52;;;;;;;;;;;22.60;58.70;;;;;;499538;237;2144;-70
2021/07/13 11:57:54;;;;;;;;;;;22.50;59.00;;;;;;499561;237;1271;-70